Hauptseite
METAR-TAF:

METAR-TAF

Flughäfen :

Belize City, Belize

Philip S. W. Goldson International Airport

Breite: 17-32N, Länge: 088-18W, Höhe: 5 m

Beobachtung

Neuester Wetterbericht von vor 5 Stunden und 54 Minuten, um 02:00 UTC
Wind 10 kt aus Ost
Temperatur 29°C
Luftfeuchtigkeit 79%
Luftdruck 1014 hPa
Sichtweite 10 km oder mehr
Aufgelockert bewölkt in der Höhe von 1900 ft

METAR: MZBZ 170200Z 10010KT 9999 SCT019 29/25 A2995 Q1014 NOSIG

Zeit: 01:54 (07:54 UTC)

Prognose

Neuester Wetterbericht von vor 4 Stunden und 54 Minuten, um 03:00 UTC
Gültige Prognose vom 17 um 06 UTC bis 18 um 06 UTC
Wind 8 kt aus Ost
Sichtweite 10 km oder mehr
Aufgelockert bewölkt in der Höhe von 2200 ft
Wahrscheinlichkeit 30% :
Zeitweise
vom 17 um 09 UTC bis 17 um 18 UTC
Sichtweite: 5000 m
Durchbrochene Bewölkung in der Höhe von 1500 ft
Regenschauer

TAF: MZBZ 170300Z 1706/1806 09008KT 9999 SCT022 PROB30 TEMPO 1709/1718 5000 SHRA BKN015

Wetterbeobachtungen und Prognosen von mehr als 4000 Flughäfen (METAR und TAF Bericht).

Die verfügbaren Stationen werden durch gelbe und rote Markierungen auf der Karte dargestellt.

Führen Sie die Maus auf sie, um den Namen der Station zu sehen.

Darauf klicken, um die Beobachtung von Wetterbeobachtungen und Prognosen zu sehen.

Um die Karte zu ändern : klicken Sie auf den grünen Tasten mit einem schwarzen Kreuz Zum Vergrößern, auf den grünen Button mit einem Gedankenstrich zu verkleinern, oder auf die grünen Pfeile für benachbarte Karten.


METAR-TAF: